sensor_id;sensor_type;location;lat;lon;timestamp;temperature;humidity
4518;DHT22;2271;49.464;11.070;2023-04-01T00:01:30;11.00;99.90
4518;DHT22;2271;49.464;11.070;2023-04-01T00:03:55;11.10;99.90
4518;DHT22;2271;49.464;11.070;2023-04-01T00:06:21;11.00;99.90
4518;DHT22;2271;49.464;11.070;2023-04-01T00:08:47;11.00;99.90
4518;DHT22;2271;49.464;11.070;2023-04-01T00:11:14;11.10;99.90
4518;DHT22;2271;49.464;11.070;2023-04-01T00:13:40;11.10;99.90
4518;DHT22;2271;49.464;11.070;2023-04-01T00:16:06;11.10;99.90
4518;DHT22;2271;49.464;11.070;2023-04-01T00:18:32;11.10;99.90
4518;DHT22;2271;49.464;11.070;2023-04-01T00:20:58;11.10;99.90
4518;DHT22;2271;49.464;11.070;2023-04-01T00:23:24;11.10;99.90
4518;DHT22;2271;49.464;11.070;2023-04-01T00:25:50;11.10;99.90
4518;DHT22;2271;49.464;11.070;2023-04-01T00:28:20;11.10;99.90
4518;DHT22;2271;49.464;11.070;2023-04-01T00:30:46;11.10;99.90
4518;DHT22;2271;49.464;11.070;2023-04-01T00:33:12;11.00;99.90
4518;DHT22;2271;49.464;11.070;2023-04-01T00:35:38;11.00;99.90
4518;DHT22;2271;49.464;11.070;2023-04-01T00:38:04;11.00;99.90
4518;DHT22;2271;49.464;11.070;2023-04-01T00:40:34;11.10;99.90
4518;DHT22;2271;49.464;11.070;2023-04-01T00:43:00;11.00;99.90
4518;DHT22;2271;49.464;11.070;2023-04-01T00:45:33;11.10;99.90
4518;DHT22;2271;49.464;11.070;2023-04-01T00:48:04;11.10;99.90
4518;DHT22;2271;49.464;11.070;2023-04-01T00:50:31;11.10;99.90
4518;DHT22;2271;49.464;11.070;2023-04-01T00:52:58;11.10;99.90
4518;DHT22;2271;49.464;11.070;2023-04-01T00:55:28;11.10;99.90
4518;DHT22;2271;49.464;11.070;2023-04-01T00:57:55;11.10;99.90
4518;DHT22;2271;49.464;11.070;2023-04-01T01:00:22;11.10;99.90
4518;DHT22;2271;49.464;11.070;2023-04-01T01:02:50;11.20;99.90
4518;DHT22;2271;49.464;11.070;2023-04-01T01:05:16;11.20;99.90
4518;DHT22;2271;49.464;11.070;2023-04-01T01:07:56;11.20;99.90
4518;DHT22;2271;49.464;11.070;2023-04-01T01:10:28;11.10;99.90
4518;DHT22;2271;49.464;11.070;2023-04-01T01:15:49;11.10;99.90
4518;DHT22;2271;49.464;11.070;2023-04-01T01:21:24;11.10;99.90
4518;DHT22;2271;49.464;11.070;2023-04-01T01:26:49;11.10;99.90
4518;DHT22;2271;49.464;11.070;2023-04-01T01:32:13;11.10;99.90
4518;DHT22;2271;49.464;11.070;2023-04-01T01:37:30;11.10;99.90
4518;DHT22;2271;49.464;11.070;2023-04-01T01:40:01;11.10;99.90
4518;DHT22;2271;49.464;11.070;2023-04-01T01:42:30;11.10;99.90
4518;DHT22;2271;49.464;11.070;2023-04-01T01:44:58;11.00;99.90
4518;DHT22;2271;49.464;11.070;2023-04-01T01:47:25;11.10;99.90
4518;DHT22;2271;49.464;11.070;2023-04-01T01:49:53;11.10;99.90
4518;DHT22;2271;49.464;11.070;2023-04-01T01:52:21;11.10;99.90
4518;DHT22;2271;49.464;11.070;2023-04-01T01:54:53;11.10;99.90
4518;DHT22;2271;49.464;11.070;2023-04-01T01:57:31;11.10;99.90
4518;DHT22;2271;49.464;11.070;2023-04-01T02:00:04;11.10;99.90
4518;DHT22;2271;49.464;11.070;2023-04-01T02:02:31;11.10;99.90
4518;DHT22;2271;49.464;11.070;2023-04-01T02:04:57;11.10;99.90
4518;DHT22;2271;49.464;11.070;2023-04-01T02:07:28;11.10;99.90
4518;DHT22;2271;49.464;11.070;2023-04-01T02:09:56;11.10;99.90
4518;DHT22;2271;49.464;11.070;2023-04-01T02:12:22;11.10;99.90
4518;DHT22;2271;49.464;11.070;2023-04-01T02:14:52;11.10;99.90
4518;DHT22;2271;49.464;11.070;2023-04-01T02:17:21;11.10;99.90
4518;DHT22;2271;49.464;11.070;2023-04-01T02:19:53;11.10;99.90
4518;DHT22;2271;49.464;11.070;2023-04-01T02:22:25;11.10;99.90
4518;DHT22;2271;49.464;11.070;2023-04-01T02:24:58;11.10;99.90
4518;DHT22;2271;49.464;11.070;2023-04-01T02:27:25;11.10;99.90
4518;DHT22;2271;49.464;11.070;2023-04-01T02:29:51;11.10;99.90
4518;DHT22;2271;49.464;11.070;2023-04-01T02:32:19;11.20;99.90
4518;DHT22;2271;49.464;11.070;2023-04-01T02:34:47;11.20;99.90
4518;DHT22;2271;49.464;11.070;2023-04-01T02:37:13;11.10;99.90
4518;DHT22;2271;49.464;11.070;2023-04-01T02:39:39;11.10;99.90
4518;DHT22;2271;49.464;11.070;2023-04-01T02:42:05;11.10;99.90
4518;DHT22;2271;49.464;11.070;2023-04-01T02:44:31;11.10;99.90
4518;DHT22;2271;49.464;11.070;2023-04-01T02:46:56;11.10;99.90
4518;DHT22;2271;49.464;11.070;2023-04-01T02:49:22;11.10;99.90
4518;DHT22;2271;49.464;11.070;2023-04-01T02:51:47;11.10;99.90
4518;DHT22;2271;49.464;11.070;2023-04-01T02:54:13;11.10;99.90
4518;DHT22;2271;49.464;11.070;2023-04-01T02:56:39;11.20;99.90
4518;DHT22;2271;49.464;11.070;2023-04-01T02:59:04;11.10;99.90
4518;DHT22;2271;49.464;11.070;2023-04-01T03:01:30;11.10;99.90
4518;DHT22;2271;49.464;11.070;2023-04-01T03:03:56;11.10;99.90
4518;DHT22;2271;49.464;11.070;2023-04-01T03:06:21;11.10;99.90
4518;DHT22;2271;49.464;11.070;2023-04-01T03:08:47;11.10;99.90
4518;DHT22;2271;49.464;11.070;2023-04-01T03:11:13;11.10;99.90
4518;DHT22;2271;49.464;11.070;2023-04-01T03:13:39;11.10;99.90
4518;DHT22;2271;49.464;11.070;2023-04-01T03:16:05;11.00;99.90
4518;DHT22;2271;49.464;11.070;2023-04-01T03:18:30;11.00;99.90
4518;DHT22;2271;49.464;11.070;2023-04-01T03:20:56;11.10;99.90
4518;DHT22;2271;49.464;11.070;2023-04-01T03:23:22;11.10;99.90
4518;DHT22;2271;49.464;11.070;2023-04-01T03:25:49;11.10;99.90
4518;DHT22;2271;49.464;11.070;2023-04-01T03:28:15;11.10;99.90
4518;DHT22;2271;49.464;11.070;2023-04-01T03:30:41;11.10;99.90
4518;DHT22;2271;49.464;11.070;2023-04-01T03:33:07;11.10;99.90
4518;DHT22;2271;49.464;11.070;2023-04-01T03:35:33;11.10;99.90
4518;DHT22;2271;49.464;11.070;2023-04-01T03:37:58;11.10;99.90
4518;DHT22;2271;49.464;11.070;2023-04-01T03:40:24;11.10;99.90
4518;DHT22;2271;49.464;11.070;2023-04-01T03:42:51;11.10;99.90
4518;DHT22;2271;49.464;11.070;2023-04-01T03:45:18;11.10;99.90
4518;DHT22;2271;49.464;11.070;2023-04-01T03:47:44;11.10;99.90
4518;DHT22;2271;49.464;11.070;2023-04-01T03:50:10;11.10;99.90
4518;DHT22;2271;49.464;11.070;2023-04-01T03:52:35;11.10;99.90
4518;DHT22;2271;49.464;11.070;2023-04-01T03:55:01;11.10;99.90
4518;DHT22;2271;49.464;11.070;2023-04-01T03:57:27;11.10;99.90
4518;DHT22;2271;49.464;11.070;2023-04-01T03:59:53;11.10;99.90
4518;DHT22;2271;49.464;11.070;2023-04-01T04:02:18;11.10;99.90
4518;DHT22;2271;49.464;11.070;2023-04-01T04:04:44;11.00;99.90
4518;DHT22;2271;49.464;11.070;2023-04-01T04:07:11;11.00;99.90
4518;DHT22;2271;49.464;11.070;2023-04-01T04:09:37;11.00;99.90
4518;DHT22;2271;49.464;11.070;2023-04-01T04:12:03;11.00;99.90
4518;DHT22;2271;49.464;11.070;2023-04-01T04:14:30;11.10;99.90
4518;DHT22;2271;49.464;11.070;2023-04-01T04:16:56;11.10;99.90
4518;DHT22;2271;49.464;11.070;2023-04-01T04:19:22;11.00;99.90
4518;DHT22;2271;49.464;11.070;2023-04-01T04:21:47;11.00;99.90
4518;DHT22;2271;49.464;11.070;2023-04-01T04:24:13;11.10;99.90
4518;DHT22;2271;49.464;11.070;2023-04-01T04:26:38;11.00;99.90
4518;DHT22;2271;49.464;11.070;2023-04-01T04:29:04;11.00;99.90
4518;DHT22;2271;49.464;11.070;2023-04-01T04:31:30;11.00;99.90
4518;DHT22;2271;49.464;11.070;2023-04-01T04:33:55;11.00;99.90
4518;DHT22;2271;49.464;11.070;2023-04-01T04:36:21;11.00;99.90
4518;DHT22;2271;49.464;11.070;2023-04-01T04:38:48;11.00;99.90
4518;DHT22;2271;49.464;11.070;2023-04-01T04:41:15;11.00;99.90
4518;DHT22;2271;49.464;11.070;2023-04-01T04:43:53;11.00;99.90
4518;DHT22;2271;49.464;11.070;2023-04-01T04:46:19;11.00;99.90
4518;DHT22;2271;49.464;11.070;2023-04-01T04:48:45;11.00;99.90
4518;DHT22;2271;49.464;11.070;2023-04-01T04:51:18;11.00;99.90
4518;DHT22;2271;49.464;11.070;2023-04-01T04:53:44;11.00;99.90
4518;DHT22;2271;49.464;11.070;2023-04-01T04:56:10;11.00;99.90
4518;DHT22;2271;49.464;11.070;2023-04-01T04:58:39;10.90;99.90
4518;DHT22;2271;49.464;11.070;2023-04-01T05:01:09;10.90;99.90
4518;DHT22;2271;49.464;11.070;2023-04-01T05:03:35;10.90;99.90
4518;DHT22;2271;49.464;11.070;2023-04-01T05:06:01;10.90;99.90
4518;DHT22;2271;49.464;11.070;2023-04-01T05:08:27;10.90;99.90
4518;DHT22;2271;49.464;11.070;2023-04-01T05:10:53;10.90;99.90
4518;DHT22;2271;49.464;11.070;2023-04-01T05:13:19;10.90;99.90
4518;DHT22;2271;49.464;11.070;2023-04-01T05:15:44;10.80;99.90
4518;DHT22;2271;49.464;11.070;2023-04-01T05:18:10;10.80;99.90
4518;DHT22;2271;49.464;11.070;2023-04-01T05:20:35;10.80;99.90
4518;DHT22;2271;49.464;11.070;2023-04-01T05:23:01;10.80;99.90
4518;DHT22;2271;49.464;11.070;2023-04-01T05:25:27;10.80;99.90
4518;DHT22;2271;49.464;11.070;2023-04-01T05:27:53;10.90;99.90
4518;DHT22;2271;49.464;11.070;2023-04-01T05:30:18;10.90;99.90
4518;DHT22;2271;49.464;11.070;2023-04-01T05:32:44;10.80;99.90
4518;DHT22;2271;49.464;11.070;2023-04-01T05:35:10;10.80;99.90
4518;DHT22;2271;49.464;11.070;2023-04-01T05:37:36;10.80;99.90
4518;DHT22;2271;49.464;11.070;2023-04-01T05:40:03;10.80;99.90
4518;DHT22;2271;49.464;11.070;2023-04-01T05:42:29;10.80;99.90
4518;DHT22;2271;49.464;11.070;2023-04-01T05:44:55;10.80;99.90
4518;DHT22;2271;49.464;11.070;2023-04-01T05:47:21;10.80;99.90
4518;DHT22;2271;49.464;11.070;2023-04-01T05:49:47;10.80;99.90
4518;DHT22;2271;49.464;11.070;2023-04-01T05:52:13;10.90;99.90
4518;DHT22;2271;49.464;11.070;2023-04-01T05:54:39;10.90;99.90
4518;DHT22;2271;49.464;11.070;2023-04-01T05:57:04;10.90;99.90
4518;DHT22;2271;49.464;11.070;2023-04-01T05:59:30;10.90;99.90
4518;DHT22;2271;49.464;11.070;2023-04-01T06:01:57;10.90;99.90
4518;DHT22;2271;49.464;11.070;2023-04-01T06:04:22;10.90;99.90
4518;DHT22;2271;49.464;11.070;2023-04-01T06:06:48;10.90;99.90
4518;DHT22;2271;49.464;11.070;2023-04-01T06:09:19;10.90;99.90
4518;DHT22;2271;49.464;11.070;2023-04-01T06:25:16;11.10;99.90
4518;DHT22;2271;49.464;11.070;2023-04-01T06:30:49;11.10;99.90
4518;DHT22;2271;49.464;11.070;2023-04-01T06:44:41;11.10;99.90
4518;DHT22;2271;49.464;11.070;2023-04-01T06:50:12;11.20;99.90
4518;DHT22;2271;49.464;11.070;2023-04-01T06:58:36;11.30;99.90
4518;DHT22;2271;49.464;11.070;2023-04-01T07:01:06;11.30;99.90
4518;DHT22;2271;49.464;11.070;2023-04-01T07:03:47;11.40;99.90
4518;DHT22;2271;49.464;11.070;2023-04-01T07:06:30;11.50;99.90
4518;DHT22;2271;49.464;11.070;2023-04-01T07:08:59;11.60;99.90
4518;DHT22;2271;49.464;11.070;2023-04-01T07:11:33;11.50;99.90
4518;DHT22;2271;49.464;11.070;2023-04-01T07:14:06;11.50;99.90
4518;DHT22;2271;49.464;11.070;2023-04-01T07:16:39;11.40;99.90
4518;DHT22;2271;49.464;11.070;2023-04-01T07:22:01;11.50;99.90
4518;DHT22;2271;49.464;11.070;2023-04-01T07:24:33;11.50;99.90
4518;DHT22;2271;49.464;11.070;2023-04-01T07:26:59;11.40;99.90
4518;DHT22;2271;49.464;11.070;2023-04-01T07:29:26;11.50;99.90
4518;DHT22;2271;49.464;11.070;2023-04-01T07:37:36;11.50;99.90
4518;DHT22;2271;49.464;11.070;2023-04-01T07:40:25;11.50;99.90
4518;DHT22;2271;49.464;11.070;2023-04-01T07:48:53;11.50;99.90
4518;DHT22;2271;49.464;11.070;2023-04-01T08:06:47;11.60;99.90
4518;DHT22;2271;49.464;11.070;2023-04-01T08:15:19;11.80;99.90
4518;DHT22;2271;49.464;11.070;2023-04-01T08:20:49;11.80;99.90
4518;DHT22;2271;49.464;11.070;2023-04-01T08:23:37;11.80;99.90
4518;DHT22;2271;49.464;11.070;2023-04-01T08:26:16;11.70;99.90
4518;DHT22;2271;49.464;11.070;2023-04-01T08:28:51;11.80;99.90
4518;DHT22;2271;49.464;11.070;2023-04-01T08:34:01;11.80;99.90
4518;DHT22;2271;49.464;11.070;2023-04-01T08:36:36;11.80;99.90
4518;DHT22;2271;49.464;11.070;2023-04-01T08:39:30;11.80;99.90
4518;DHT22;2271;49.464;11.070;2023-04-01T08:50:48;11.80;99.90
4518;DHT22;2271;49.464;11.070;2023-04-01T09:07:05;11.80;99.90
4518;DHT22;2271;49.464;11.070;2023-04-01T09:09:59;11.90;99.90
4518;DHT22;2271;49.464;11.070;2023-04-01T09:12:59;11.90;99.90
4518;DHT22;2271;49.464;11.070;2023-04-01T09:26:51;12.10;99.90
4518;DHT22;2271;49.464;11.070;2023-04-01T09:35:24;12.20;99.90
4518;DHT22;2271;49.464;11.070;2023-04-01T09:40:58;12.10;99.90
4518;DHT22;2271;49.464;11.070;2023-04-01T09:46:26;12.50;99.90
4518;DHT22;2271;49.464;11.070;2023-04-01T09:49:13;12.40;99.90
4518;DHT22;2271;49.464;11.070;2023-04-01T09:52:18;12.20;99.90
4518;DHT22;2271;49.464;11.070;2023-04-01T09:57:50;12.10;99.90
4518;DHT22;2271;49.464;11.070;2023-04-01T10:29:03;11.70;99.90
4518;DHT22;2271;49.464;11.070;2023-04-01T10:34:47;11.80;99.90
4518;DHT22;2271;49.464;11.070;2023-04-01T10:42:54;12.00;99.90
4518;DHT22;2271;49.464;11.070;2023-04-01T10:57:07;11.50;99.90
4518;DHT22;2271;49.464;11.070;2023-04-01T11:25:05;11.40;99.90
4518;DHT22;2271;49.464;11.070;2023-04-01T11:30:28;11.30;99.90
4518;DHT22;2271;49.464;11.070;2023-04-01T11:33:34;11.30;99.90
4518;DHT22;2271;49.464;11.070;2023-04-01T11:36:11;11.40;99.90
4518;DHT22;2271;49.464;11.070;2023-04-01T11:39:00;11.30;99.90
4518;DHT22;2271;49.464;11.070;2023-04-01T11:44:29;11.30;99.90
4518;DHT22;2271;49.464;11.070;2023-04-01T11:47:28;11.40;99.90
4518;DHT22;2271;49.464;11.070;2023-04-01T11:53:19;11.30;99.90
4518;DHT22;2271;49.464;11.070;2023-04-01T11:55:50;11.30;99.90
4518;DHT22;2271;49.464;11.070;2023-04-01T12:04:57;11.40;99.90
4518;DHT22;2271;49.464;11.070;2023-04-01T12:15:52;11.40;99.90
4518;DHT22;2271;49.464;11.070;2023-04-01T12:18:38;11.40;99.90
4518;DHT22;2271;49.464;11.070;2023-04-01T12:22:09;11.40;99.90
4518;DHT22;2271;49.464;11.070;2023-04-01T12:38:43;11.50;99.90
4518;DHT22;2271;49.464;11.070;2023-04-01T12:41:55;11.40;99.90
4518;DHT22;2271;49.464;11.070;2023-04-01T12:44:09;11.40;99.90
4518;DHT22;2271;49.464;11.070;2023-04-01T12:55:43;11.30;99.90
4518;DHT22;2271;49.464;11.070;2023-04-01T13:15:36;11.40;99.90
4518;DHT22;2271;49.464;11.070;2023-04-01T13:20:53;11.50;99.90
4518;DHT22;2271;49.464;11.070;2023-04-01T13:28:47;11.40;99.90
4518;DHT22;2271;49.464;11.070;2023-04-01T13:31:47;11.50;99.90
4518;DHT22;2271;49.464;11.070;2023-04-01T13:42:37;11.70;99.90
4518;DHT22;2271;49.464;11.070;2023-04-01T13:45:29;11.70;99.90
4518;DHT22;2271;49.464;11.070;2023-04-01T13:59:10;11.80;99.90
4518;DHT22;2271;49.464;11.070;2023-04-01T14:01:45;11.70;99.90
4518;DHT22;2271;49.464;11.070;2023-04-01T14:07:00;11.70;99.90
4518;DHT22;2271;49.464;11.070;2023-04-01T14:20:34;11.60;99.90
4518;DHT22;2271;49.464;11.070;2023-04-01T14:25:58;11.60;99.90
4518;DHT22;2271;49.464;11.070;2023-04-01T14:36:50;11.60;99.90
4518;DHT22;2271;49.464;11.070;2023-04-01T14:47:32;11.50;99.90
4518;DHT22;2271;49.464;11.070;2023-04-01T14:50:11;11.50;99.90
4518;DHT22;2271;49.464;11.070;2023-04-01T14:56:02;11.40;99.90
4518;DHT22;2271;49.464;11.070;2023-04-01T14:58:46;11.40;99.90
4518;DHT22;2271;49.464;11.070;2023-04-01T15:15:14;11.30;99.90
4518;DHT22;2271;49.464;11.070;2023-04-01T15:23:33;11.40;99.90
4518;DHT22;2271;49.464;11.070;2023-04-01T15:31:48;11.50;99.90
4518;DHT22;2271;49.464;11.070;2023-04-01T15:34:32;11.50;99.90
4518;DHT22;2271;49.464;11.070;2023-04-01T15:42:43;11.50;99.90
4518;DHT22;2271;49.464;11.070;2023-04-01T15:51:01;11.40;99.90
4518;DHT22;2271;49.464;11.070;2023-04-01T15:53:54;11.50;99.90
4518;DHT22;2271;49.464;11.070;2023-04-01T16:18:21;11.50;99.90
4518;DHT22;2271;49.464;11.070;2023-04-01T16:20:57;11.40;99.90
4518;DHT22;2271;49.464;11.070;2023-04-01T16:26:28;11.40;99.90
4518;DHT22;2271;49.464;11.070;2023-04-01T16:29:17;11.40;99.90
4518;DHT22;2271;49.464;11.070;2023-04-01T16:34:35;11.40;99.90
4518;DHT22;2271;49.464;11.070;2023-04-01T16:37:09;11.40;99.90
4518;DHT22;2271;49.464;11.070;2023-04-01T16:42:22;11.30;99.90
4518;DHT22;2271;49.464;11.070;2023-04-01T16:47:38;11.30;99.90
4518;DHT22;2271;49.464;11.070;2023-04-01T16:52:48;11.20;99.90
4518;DHT22;2271;49.464;11.070;2023-04-01T16:55:19;11.20;99.90
4518;DHT22;2271;49.464;11.070;2023-04-01T16:57:56;11.30;99.90
4518;DHT22;2271;49.464;11.070;2023-04-01T17:06:03;11.20;99.90
4518;DHT22;2271;49.464;11.070;2023-04-01T17:11:19;11.10;99.90
4518;DHT22;2271;49.464;11.070;2023-04-01T17:20:05;11.10;99.90
4518;DHT22;2271;49.464;11.070;2023-04-01T17:25:17;11.10;99.90
4518;DHT22;2271;49.464;11.070;2023-04-01T17:31:02;11.00;99.90
4518;DHT22;2271;49.464;11.070;2023-04-01T17:36:29;10.90;99.90
4518;DHT22;2271;49.464;11.070;2023-04-01T17:39:01;10.90;99.90
4518;DHT22;2271;49.464;11.070;2023-04-01T17:52:32;11.00;99.90
4518;DHT22;2271;49.464;11.070;2023-04-01T18:11:39;11.10;99.90
4518;DHT22;2271;49.464;11.070;2023-04-01T18:17:17;11.10;99.90
4518;DHT22;2271;49.464;11.070;2023-04-01T18:27:37;11.00;99.90
4518;DHT22;2271;49.464;11.070;2023-04-01T18:30:17;11.00;99.90
4518;DHT22;2271;49.464;11.070;2023-04-01T18:35:31;11.00;99.90
4518;DHT22;2271;49.464;11.070;2023-04-01T18:38:14;11.00;99.90
4518;DHT22;2271;49.464;11.070;2023-04-01T18:41:14;11.00;99.90
4518;DHT22;2271;49.464;11.070;2023-04-01T18:46:45;11.00;99.90
4518;DHT22;2271;49.464;11.070;2023-04-01T18:49:30;11.00;99.90
4518;DHT22;2271;49.464;11.070;2023-04-01T18:52:25;11.00;99.90
4518;DHT22;2271;49.464;11.070;2023-04-01T18:57:38;11.00;99.90
4518;DHT22;2271;49.464;11.070;2023-04-01T19:00:21;11.00;99.90
4518;DHT22;2271;49.464;11.070;2023-04-01T19:03:00;11.00;99.90
4518;DHT22;2271;49.464;11.070;2023-04-01T19:05:38;11.00;99.90
4518;DHT22;2271;49.464;11.070;2023-04-01T19:08:33;11.00;99.90
4518;DHT22;2271;49.464;11.070;2023-04-01T19:11:17;11.00;99.90
4518;DHT22;2271;49.464;11.070;2023-04-01T19:13:53;11.00;99.90
4518;DHT22;2271;49.464;11.070;2023-04-01T19:19:54;11.00;99.90
4518;DHT22;2271;49.464;11.070;2023-04-01T19:22:51;11.00;99.90
4518;DHT22;2271;49.464;11.070;2023-04-01T19:25:38;11.00;99.90
4518;DHT22;2271;49.464;11.070;2023-04-01T19:36:25;11.00;99.90
4518;DHT22;2271;49.464;11.070;2023-04-01T19:42:21;11.00;99.90
4518;DHT22;2271;49.464;11.070;2023-04-01T19:45:28;11.00;99.90
4518;DHT22;2271;49.464;11.070;2023-04-01T19:48:17;11.00;99.90
4518;DHT22;2271;49.464;11.070;2023-04-01T19:51:04;11.00;99.90
4518;DHT22;2271;49.464;11.070;2023-04-01T19:56:22;11.00;99.90
4518;DHT22;2271;49.464;11.070;2023-04-01T19:59:22;11.00;99.90
4518;DHT22;2271;49.464;11.070;2023-04-01T20:04:25;11.00;99.90
4518;DHT22;2271;49.464;11.070;2023-04-01T20:07:04;11.00;99.90
4518;DHT22;2271;49.464;11.070;2023-04-01T20:14:53;11.00;99.90
4518;DHT22;2271;49.464;11.070;2023-04-01T20:17:41;11.00;99.90
4518;DHT22;2271;49.464;11.070;2023-04-01T20:25:20;11.00;99.90
4518;DHT22;2271;49.464;11.070;2023-04-01T20:28:00;11.00;99.90
4518;DHT22;2271;49.464;11.070;2023-04-01T20:36:30;11.00;99.90
4518;DHT22;2271;49.464;11.070;2023-04-01T20:44:42;10.90;99.90
4518;DHT22;2271;49.464;11.070;2023-04-01T20:49:53;11.00;99.90
4518;DHT22;2271;49.464;11.070;2023-04-01T20:52:42;11.00;99.90
4518;DHT22;2271;49.464;11.070;2023-04-01T21:06:34;11.00;99.90
4518;DHT22;2271;49.464;11.070;2023-04-01T21:08:49;11.00;99.90
4518;DHT22;2271;49.464;11.070;2023-04-01T21:11:53;11.00;99.90
4518;DHT22;2271;49.464;11.070;2023-04-01T21:17:58;11.00;99.90
4518;DHT22;2271;49.464;11.070;2023-04-01T21:28:44;10.90;99.90
4518;DHT22;2271;49.464;11.070;2023-04-01T21:31:27;10.90;99.90
4518;DHT22;2271;49.464;11.070;2023-04-01T21:34:52;10.90;99.90
4518;DHT22;2271;49.464;11.070;2023-04-01T21:42:49;10.90;99.90
4518;DHT22;2271;49.464;11.070;2023-04-01T22:02:46;10.90;99.90
4518;DHT22;2271;49.464;11.070;2023-04-01T22:05:34;10.90;99.90
4518;DHT22;2271;49.464;11.070;2023-04-01T22:08:10;10.90;99.90
4518;DHT22;2271;49.464;11.070;2023-04-01T22:10:49;10.90;99.90
4518;DHT22;2271;49.464;11.070;2023-04-01T22:13:28;10.90;99.90
4518;DHT22;2271;49.464;11.070;2023-04-01T22:18:37;10.80;99.90
4518;DHT22;2271;49.464;11.070;2023-04-01T22:21:42;10.80;99.90
4518;DHT22;2271;49.464;11.070;2023-04-01T22:24:35;10.80;99.90
4518;DHT22;2271;49.464;11.070;2023-04-01T22:27:24;10.80;99.90
4518;DHT22;2271;49.464;11.070;2023-04-01T22:30:19;10.70;99.90
4518;DHT22;2271;49.464;11.070;2023-04-01T22:43:38;10.80;99.90
4518;DHT22;2271;49.464;11.070;2023-04-01T22:56:43;10.80;99.90
4518;DHT22;2271;49.464;11.070;2023-04-01T23:01:51;10.70;99.90
4518;DHT22;2271;49.464;11.070;2023-04-01T23:04:23;10.80;99.90
4518;DHT22;2271;49.464;11.070;2023-04-01T23:06:56;10.70;99.90
4518;DHT22;2271;49.464;11.070;2023-04-01T23:09:31;10.70;99.90
4518;DHT22;2271;49.464;11.070;2023-04-01T23:12:04;10.70;99.90
4518;DHT22;2271;49.464;11.070;2023-04-01T23:14:44;10.60;99.90
4518;DHT22;2271;49.464;11.070;2023-04-01T23:20:29;10.60;99.90
4518;DHT22;2271;49.464;11.070;2023-04-01T23:25:56;10.60;99.90
4518;DHT22;2271;49.464;11.070;2023-04-01T23:28:51;10.60;99.90
4518;DHT22;2271;49.464;11.070;2023-04-01T23:31:33;10.60;99.90
4518;DHT22;2271;49.464;11.070;2023-04-01T23:36:47;10.60;99.90
4518;DHT22;2271;49.464;11.070;2023-04-01T23:39:32;10.70;99.90
4518;DHT22;2271;49.464;11.070;2023-04-01T23:42:14;10.70;99.90
4518;DHT22;2271;49.464;11.070;2023-04-01T23:44:41;10.60;99.90
4518;DHT22;2271;49.464;11.070;2023-04-01T23:47:16;10.60;99.90
4518;DHT22;2271;49.464;11.070;2023-04-01T23:49:46;10.60;99.90
4518;DHT22;2271;49.464;11.070;2023-04-01T23:52:35;10.60;99.90
4518;DHT22;2271;49.464;11.070;2023-04-01T23:55:33;10.60;99.90
